Aberdeen, Idaho
Current Conditions -  °F | °C
As of 5:53 AM on Thursday 30 Oct 2014 (Local Time) from KPIH Reporting Station
Overcast Overcast  
Wind Chill:   Ceiling: 10000
Heat Index:   Visibility: 10mi
Dew Point:   Wind: 5mph
Humidity: 60%   Direction: 270°W
Pressure: 30.28"   Gusts: NA
Location:  42.94°N, 112.84°W
Report Text: KPIH 301153Z 27004KT 10SM OVC100 07/00 A3028 RMK AO2 SLP238 T00720000 10111 20028 50001
Loading
Personal Weather Stations






























Interactive Weather Map
Tropical Storm Tracking
New forecast layout! Learn more

10-Day Weather Forecast

Advertisements
Track Severe Weather on mobile